createdAt,value
2023-11-29T00:00:32.410Z,74.88
2023-11-29T00:03:00.037Z,75.99
2023-11-29T00:05:33.270Z,75.25
2023-11-29T00:08:07.989Z,74.60
2023-11-29T00:10:35.161Z,75.08
2023-11-29T00:13:10.064Z,76.01
2023-11-29T00:15:37.194Z,75.97
2023-11-29T00:18:04.621Z,76.14
2023-11-29T00:20:31.990Z,76.78
2023-11-29T00:22:59.178Z,76.30
2023-11-29T00:25:26.309Z,76.47
2023-11-29T00:27:53.396Z,76.61
2023-11-29T00:30:21.337Z,76.58
2023-11-29T00:32:48.447Z,76.00
2023-11-29T00:35:15.788Z,76.53
2023-11-29T00:37:42.828Z,75.87
2023-11-29T00:40:10.657Z,75.96
2023-11-29T00:42:37.741Z,76.31
2023-11-29T00:45:05.454Z,76.86
2023-11-29T00:47:32.496Z,76.56
2023-11-29T00:49:59.637Z,76.55
2023-11-29T00:52:26.640Z,76.59
2023-11-29T00:54:53.654Z,76.42
2023-11-29T00:57:21.337Z,76.39
2023-11-29T00:59:49.127Z,76.30
2023-11-29T01:02:17.352Z,77.00
2023-11-29T01:04:44.391Z,77.29
2023-11-29T01:07:11.584Z,77.69
2023-11-29T01:09:38.872Z,78.02
2023-11-29T01:12:06.168Z,77.75
2023-11-29T01:14:33.300Z,77.16
2023-11-29T01:17:00.802Z,76.89
2023-11-29T01:19:27.861Z,76.56
2023-11-29T01:21:54.846Z,77.54
2023-11-29T01:24:21.900Z,77.08
2023-11-29T01:26:48.973Z,77.15
2023-11-29T01:29:16.051Z,77.15
2023-11-29T01:31:43.112Z,76.51
2023-11-29T01:34:10.165Z,76.75
2023-11-29T01:36:44.270Z,77.61
2023-11-29T01:39:15.523Z,76.82
2023-11-29T01:41:43.562Z,76.96
2023-11-29T01:44:11.036Z,77.27
2023-11-29T01:46:38.722Z,78.31
2023-11-29T01:49:07.153Z,78.57
2023-11-29T01:51:34.578Z,78.90
2023-11-29T01:54:04.269Z,79.17
2023-11-29T01:56:31.379Z,79.44
2023-11-29T01:58:58.406Z,79.10
2023-11-29T02:01:25.695Z,78.82
2023-11-29T02:03:53.506Z,78.33
2023-11-29T02:06:21.500Z,78.73
2023-11-29T02:08:48.847Z,78.94
2023-11-29T02:11:20.237Z,78.75
2023-11-29T02:13:47.354Z,79.23
2023-11-29T02:16:14.438Z,79.23
2023-11-29T02:18:41.514Z,79.36
2023-11-29T02:21:08.707Z,78.49
2023-11-29T02:23:55.171Z,78.59
2023-11-29T02:26:22.410Z,78.41
2023-11-29T02:28:49.662Z,78.06
2023-11-29T02:31:16.824Z,78.00
2023-11-29T02:33:44.015Z,77.78
2023-11-29T02:36:11.239Z,77.70
2023-11-29T02:38:38.624Z,77.97
2023-11-29T02:41:06.167Z,77.35
2023-11-29T02:43:33.816Z,78.37
2023-11-29T02:46:01.105Z,77.42
2023-11-29T02:48:28.551Z,77.87
2023-11-29T02:50:55.774Z,78.49
2023-11-29T02:53:22.898Z,78.15
2023-11-29T02:55:49.950Z,78.33
2023-11-29T02:58:17.118Z,78.18
2023-11-29T03:00:44.147Z,77.83
2023-11-29T03:03:11.249Z,78.46
2023-11-29T03:05:38.270Z,78.13
2023-11-29T03:08:05.658Z,78.18
2023-11-29T03:10:33.960Z,78.05
2023-11-29T03:13:01.779Z,77.96
2023-11-29T03:15:28.914Z,77.84
2023-11-29T03:17:56.130Z,78.44
2023-11-29T03:20:23.172Z,78.98
2023-11-29T03:22:50.192Z,78.70
2023-11-29T03:25:17.235Z,78.90
2023-11-29T03:27:44.208Z,77.75
2023-11-29T03:30:12.232Z,77.69
2023-11-29T03:32:39.387Z,78.40
2023-11-29T03:35:07.223Z,77.97
2023-11-29T03:37:34.389Z,78.66
2023-11-29T03:40:01.465Z,79.10
2023-11-29T03:42:30.863Z,78.81
2023-11-29T03:44:57.890Z,79.32
2023-11-29T03:47:27.281Z,79.18
2023-11-29T03:49:54.298Z,79.39
2023-11-29T03:52:23.376Z,79.26
2023-11-29T03:54:50.577Z,79.63
2023-11-29T03:57:19.996Z,79.65
2023-11-29T03:59:49.781Z,79.32
2023-11-29T04:02:17.199Z,79.35
2023-11-29T04:04:44.506Z,79.67
2023-11-29T04:07:13.405Z,79.47
2023-11-29T04:09:46.381Z,79.20
2023-11-29T04:12:14.680Z,79.09
2023-11-29T04:14:41.971Z,79.26
2023-11-29T04:17:09.145Z,79.61
2023-11-29T04:19:36.905Z,79.53
2023-11-29T04:22:04.014Z,80.04
2023-11-29T04:24:31.090Z,79.71
2023-11-29T04:26:58.130Z,80.05
2023-11-29T04:29:27.416Z,80.40
2023-11-29T04:31:55.407Z,78.56
2023-11-29T04:34:28.527Z,79.36
2023-11-29T04:37:19.872Z,79.37
2023-11-29T04:39:47.080Z,79.48
2023-11-29T04:42:14.078Z,79.36
2023-11-29T04:44:41.123Z,79.42
2023-11-29T04:47:08.291Z,79.38
2023-11-29T04:49:35.550Z,79.55
2023-11-29T04:52:02.990Z,79.08
2023-11-29T04:54:30.101Z,79.00
2023-11-29T04:56:57.137Z,79.75
2023-11-29T04:59:24.269Z,79.37
2023-11-29T05:01:52.746Z,79.85
2023-11-29T05:04:20.459Z,79.56
2023-11-29T05:06:48.253Z,79.61
2023-11-29T05:09:16.049Z,79.57
2023-11-29T05:11:43.771Z,79.71
2023-11-29T05:14:11.924Z,79.65
2023-11-29T05:16:39.918Z,79.55
2023-11-29T05:19:07.379Z,79.48
2023-11-29T05:21:34.749Z,78.87
2023-11-29T05:24:01.768Z,78.24
2023-11-29T05:26:28.910Z,78.14
2023-11-29T05:28:55.983Z,77.73
2023-11-29T05:31:23.058Z,77.82
2023-11-29T05:33:50.965Z,77.48
2023-11-29T05:36:20.412Z,77.17
2023-11-29T05:38:47.735Z,77.15
2023-11-29T05:41:16.576Z,77.16
2023-11-29T05:43:43.664Z,77.44
2023-11-29T05:46:11.117Z,77.81
2023-11-29T05:48:40.651Z,77.83
2023-11-29T05:51:07.781Z,77.59
2023-11-29T05:53:35.175Z,78.07
2023-11-29T05:56:02.311Z,78.49
2023-11-29T05:58:29.443Z,78.46
2023-11-29T06:00:56.543Z,78.04
2023-11-29T06:03:27.062Z,78.20
2023-11-29T06:05:56.756Z,78.30
2023-11-29T06:08:23.900Z,78.83
2023-11-29T06:10:50.851Z,79.36
2023-11-29T06:13:21.290Z,79.02
2023-11-29T06:15:48.343Z,79.71
2023-11-29T06:18:16.815Z,79.40
2023-11-29T06:20:44.028Z,80.51
2023-11-29T06:23:11.265Z,80.23
2023-11-29T06:25:38.400Z,80.54
2023-11-29T06:28:05.635Z,81.07
2023-11-29T06:30:32.870Z,80.89
2023-11-29T06:33:00.000Z,81.50
2023-11-29T06:35:27.303Z,81.10
2023-11-29T06:37:59.612Z,81.58
2023-11-29T06:40:29.959Z,81.54
2023-11-29T06:42:57.403Z,81.44
2023-11-29T06:48:41.059Z,82.45
2023-11-29T06:51:08.192Z,82.97
2023-11-29T06:53:40.166Z,82.74
2023-11-29T06:56:08.301Z,82.08
2023-11-29T06:58:39.053Z,81.97
2023-11-29T07:01:12.547Z,82.21
2023-11-29T07:03:40.582Z,81.63
2023-11-29T07:06:08.572Z,80.93
2023-11-29T07:08:35.676Z,80.62
2023-11-29T07:11:05.741Z,80.01
2023-11-29T07:13:33.059Z,79.21
2023-11-29T07:16:00.228Z,79.07
2023-11-29T07:18:27.585Z,78.50
2023-11-29T07:20:54.665Z,77.97
2023-11-29T07:23:23.680Z,77.54
2023-11-29T07:25:53.313Z,77.67
2023-11-29T07:28:20.253Z,77.15
2023-11-29T07:30:47.249Z,77.40
2023-11-29T07:33:14.618Z,77.26
2023-11-29T07:35:41.739Z,76.92
2023-11-29T07:38:08.995Z,77.86
2023-11-29T07:40:37.936Z,77.89
2023-11-29T07:43:04.945Z,77.87
2023-11-29T07:45:32.002Z,77.32
2023-11-29T07:48:06.539Z,77.15
2023-11-29T07:50:33.693Z,77.04
2023-11-29T07:53:00.805Z,76.76
2023-11-29T07:55:28.067Z,77.85
2023-11-29T07:57:55.070Z,77.71
2023-11-29T08:00:22.351Z,77.66
2023-11-29T08:02:49.482Z,76.65
2023-11-29T08:05:16.782Z,74.87
2023-11-29T08:07:43.936Z,73.84
2023-11-29T08:10:11.033Z,72.98
2023-11-29T08:12:38.073Z,73.47
2023-11-29T08:15:06.067Z,72.39
2023-11-29T08:17:34.037Z,73.05
2023-11-29T08:20:05.952Z,73.28
2023-11-29T08:22:42.098Z,73.45
2023-11-29T08:25:13.977Z,72.78
2023-11-29T08:27:41.045Z,73.68
2023-11-29T08:30:08.926Z,72.95
2023-11-29T08:32:36.607Z,73.49
2023-11-29T08:35:05.309Z,73.59
2023-11-29T08:37:32.423Z,73.24
2023-11-29T08:40:01.043Z,72.87
2023-11-29T08:42:28.104Z,73.11
2023-11-29T08:44:55.381Z,72.93
2023-11-29T08:47:22.481Z,71.90
2023-11-29T08:49:49.510Z,72.70
2023-11-29T08:52:16.619Z,71.50
2023-11-29T08:54:45.121Z,72.18
2023-11-29T08:57:12.180Z,72.16
2023-11-29T08:59:39.341Z,72.35
2023-11-29T09:02:06.444Z,71.84
2023-11-29T09:04:38.275Z,71.29
2023-11-29T09:07:06.940Z,72.00
2023-11-29T09:09:34.065Z,71.61
2023-11-29T09:12:01.266Z,72.02
2023-11-29T09:14:28.463Z,72.07
2023-11-29T09:16:55.731Z,71.62
2023-11-29T09:19:23.234Z,71.23
2023-11-29T09:21:50.381Z,72.15
2023-11-29T09:24:17.344Z,72.83
2023-11-29T09:26:44.969Z,72.96
2023-11-29T09:29:12.005Z,72.66
2023-11-29T09:31:40.437Z,72.45
2023-11-29T09:34:07.494Z,72.40
2023-11-29T09:36:34.691Z,72.98
2023-11-29T09:39:09.225Z,72.81
2023-11-29T09:41:36.277Z,72.50
2023-11-29T09:44:06.710Z,73.40
2023-11-29T09:46:33.752Z,73.75
2023-11-29T09:49:01.986Z,72.93
2023-11-29T09:51:29.072Z,72.69
2023-11-29T09:53:56.131Z,72.71
2023-11-29T09:56:23.235Z,73.36
2023-11-29T09:58:53.466Z,73.07
2023-11-29T10:01:23.058Z,74.33
2023-11-29T10:04:09.758Z,73.25
2023-11-29T10:06:38.114Z,73.01
2023-11-29T10:09:14.108Z,72.29
2023-11-29T10:11:42.771Z,72.01
2023-11-29T10:14:12.014Z,71.78
2023-11-29T10:16:39.059Z,71.23
2023-11-29T10:19:11.341Z,71.91
2023-11-29T10:21:46.537Z,71.52
2023-11-29T10:24:25.900Z,70.79
2023-11-29T10:26:53.749Z,70.46
2023-11-29T10:29:20.843Z,69.92
2023-11-29T10:31:48.522Z,68.92
2023-11-29T10:34:16.931Z,67.83
2023-11-29T10:36:50.072Z,67.17
2023-11-29T10:39:24.278Z,66.08
2023-11-29T10:41:58.822Z,65.91
2023-11-29T10:44:42.745Z,64.94
2023-11-29T10:47:32.293Z,63.16
2023-11-29T10:50:08.042Z,64.12
2023-11-29T10:52:35.213Z,64.17
2023-11-29T10:55:03.340Z,57.76
2023-11-29T10:57:59.259Z,50.17
2023-11-29T11:00:31.079Z,52.15
2023-11-29T11:02:58.393Z,47.67
2023-11-29T11:05:26.517Z,47.03
2023-11-29T11:07:54.363Z,46.31
2023-11-29T11:10:27.579Z,45.25
2023-11-29T11:12:57.435Z,45.13
2023-11-29T11:15:26.041Z,45.32
2023-11-29T11:18:19.603Z,45.30
2023-11-29T11:20:59.914Z,44.99
2023-11-29T11:23:28.218Z,43.64
2023-11-29T11:26:08.533Z,41.91
2023-11-29T11:28:38.619Z,38.06
2023-11-29T11:31:11.097Z,38.51
2023-11-29T11:33:53.691Z,39.56
2023-11-29T11:36:25.373Z,40.47
2023-11-29T11:38:53.437Z,37.89
2023-11-29T11:41:20.695Z,39.28
2023-11-29T11:43:48.281Z,37.59
2023-11-29T11:46:20.920Z,38.95
2023-11-29T11:48:48.657Z,40.00
2023-11-29T11:51:20.111Z,37.59
2023-11-29T11:53:47.198Z,35.01
2023-11-29T11:56:21.984Z,34.57
2023-11-29T11:58:49.266Z,33.74
2023-11-29T12:01:18.586Z,32.47
2023-11-29T12:03:50.046Z,35.12
2023-11-29T12:06:18.043Z,35.73
2023-11-29T12:08:45.461Z,34.97
2023-11-29T12:11:12.887Z,33.16
2023-11-29T12:13:40.793Z,32.90
2023-11-29T12:16:16.594Z,31.54
2023-11-29T12:18:44.352Z,31.98
2023-11-29T12:21:13.835Z,32.04
2023-11-29T12:23:44.096Z,33.52
2023-11-29T12:26:16.270Z,31.27
2023-11-29T12:28:43.833Z,30.03
2023-11-29T12:31:13.877Z,30.38
2023-11-29T12:33:41.186Z,30.00
2023-11-29T12:36:11.242Z,33.39
2023-11-29T12:38:38.768Z,32.50
2023-11-29T12:41:06.244Z,30.51
2023-11-29T12:43:33.366Z,30.86
2023-11-29T12:46:00.479Z,27.42
2023-11-29T12:48:27.891Z,26.92
2023-11-29T12:50:58.710Z,26.25
2023-11-29T12:53:29.078Z,28.20
2023-11-29T12:55:56.127Z,26.91
2023-11-29T12:58:23.173Z,29.06
2023-11-29T13:00:50.184Z,28.05
2023-11-29T13:03:19.898Z,29.17
2023-11-29T13:05:54.633Z,28.85
2023-11-29T13:08:21.865Z,26.81
2023-11-29T13:10:49.209Z,27.84
2023-11-29T13:13:16.192Z,26.90
2023-11-29T13:15:43.218Z,25.78
2023-11-29T13:18:10.323Z,24.96
2023-11-29T13:20:39.946Z,24.14
2023-11-29T13:23:06.907Z,24.24
2023-11-29T13:25:33.906Z,24.49
2023-11-29T13:28:00.998Z,27.10
2023-11-29T13:30:27.969Z,27.56
2023-11-29T13:32:55.101Z,30.33
2023-11-29T13:35:22.124Z,30.78
2023-11-29T13:37:49.131Z,30.55
2023-11-29T13:40:16.410Z,31.95
2023-11-29T13:42:43.939Z,31.17
2023-11-29T13:45:14.868Z,31.17
2023-11-29T13:47:42.204Z,30.51
2023-11-29T13:50:10.178Z,31.93
2023-11-29T13:52:37.831Z,32.52
2023-11-29T13:55:12.538Z,33.64
2023-11-29T13:57:39.883Z,33.09
2023-11-29T14:00:10.681Z,33.57
2023-11-29T14:02:38.635Z,34.02
2023-11-29T14:05:06.938Z,34.72
2023-11-29T14:07:35.408Z,37.49
2023-11-29T14:10:03.050Z,41.14
2023-11-29T14:12:30.281Z,42.19
2023-11-29T14:14:57.773Z,44.58
2023-11-29T14:17:25.196Z,45.19
2023-11-29T14:19:57.356Z,46.44
2023-11-29T14:22:24.826Z,47.31
2023-11-29T14:24:57.335Z,48.17
2023-11-29T14:27:27.199Z,49.18
2023-11-29T14:30:21.421Z,49.45
2023-11-29T14:32:48.846Z,50.01
2023-11-29T14:35:16.686Z,50.35
2023-11-29T14:37:48.311Z,50.92
2023-11-29T14:40:17.624Z,52.44
2023-11-29T14:42:48.153Z,52.20
2023-11-29T14:45:15.529Z,51.78
2023-11-29T14:47:48.955Z,52.29
2023-11-29T14:50:25.000Z,53.03
2023-11-29T14:52:53.522Z,53.07
2023-11-29T14:55:22.968Z,52.95
2023-11-29T14:57:53.181Z,53.22
2023-11-29T15:00:20.615Z,54.89
2023-11-29T15:02:47.785Z,56.18
2023-11-29T15:05:15.119Z,55.92
2023-11-29T15:07:42.474Z,55.44
2023-11-29T15:10:12.092Z,56.16
2023-11-29T15:12:39.386Z,56.89
2023-11-29T15:15:07.123Z,57.03
2023-11-29T15:17:38.686Z,57.74
2023-11-29T15:20:09.485Z,57.96
2023-11-29T15:22:36.733Z,58.84
2023-11-29T15:25:11.535Z,59.07
2023-11-29T15:27:44.891Z,60.71
2023-11-29T15:30:13.110Z,61.07
2023-11-29T15:32:40.671Z,61.26
2023-11-29T15:35:09.090Z,62.21
2023-11-29T15:37:36.451Z,62.17
2023-11-29T15:40:05.008Z,61.83
2023-11-29T15:42:32.051Z,62.07
2023-11-29T15:44:59.204Z,61.79
2023-11-29T15:47:30.081Z,62.62
2023-11-29T15:50:01.653Z,63.22
2023-11-29T15:52:30.191Z,62.21
2023-11-29T15:55:00.263Z,62.78
2023-11-29T15:57:28.704Z,63.21
2023-11-29T16:00:04.370Z,63.35
2023-11-29T16:02:35.259Z,63.00
2023-11-29T16:05:13.480Z,63.44
2023-11-29T16:07:41.445Z,63.01
2023-11-29T16:10:09.722Z,63.87
2023-11-29T16:12:36.928Z,63.25
2023-11-29T16:15:06.484Z,63.97
2023-11-29T16:17:36.147Z,63.78
2023-11-29T16:20:06.683Z,65.26
2023-11-29T16:22:33.749Z,65.67
2023-11-29T16:25:01.089Z,66.61
2023-11-29T16:27:35.972Z,66.53
2023-11-29T16:30:06.151Z,66.85
2023-11-29T16:32:34.088Z,66.74
2023-11-29T16:35:01.671Z,66.46
2023-11-29T16:37:30.432Z,66.98
2023-11-29T16:39:58.577Z,67.70
2023-11-29T16:42:26.054Z,68.27
2023-11-29T16:44:53.791Z,68.79
2023-11-29T16:47:23.338Z,69.35
2023-11-29T16:49:50.336Z,69.26
2023-11-29T16:52:17.394Z,69.68
2023-11-29T16:54:44.568Z,69.74
2023-11-29T16:57:11.786Z,70.22
2023-11-29T16:59:43.156Z,70.04
2023-11-29T17:02:10.476Z,70.55
2023-11-29T17:04:38.796Z,70.86
2023-11-29T17:07:09.015Z,70.91
2023-11-29T17:09:36.204Z,71.67
2023-11-29T17:12:03.479Z,71.98
2023-11-29T17:14:30.509Z,71.97
2023-11-29T17:16:59.796Z,72.29
2023-11-29T17:19:26.844Z,72.73
2023-11-29T17:21:54.129Z,73.18
2023-11-29T17:24:23.961Z,74.12
2023-11-29T17:26:51.555Z,74.08
2023-11-29T17:29:18.648Z,74.10
2023-11-29T17:31:45.644Z,74.57
2023-11-29T17:34:14.931Z,75.26
2023-11-29T17:36:45.013Z,74.58
2023-11-29T17:39:12.231Z,74.86
2023-11-29T17:41:39.418Z,75.08
2023-11-29T17:44:06.662Z,74.59
2023-11-29T17:46:35.971Z,74.99
2023-11-29T17:49:03.043Z,75.01
2023-11-29T17:51:30.067Z,75.16
2023-11-29T17:53:57.243Z,74.73
2023-11-29T17:56:32.186Z,74.18
2023-11-29T17:59:03.585Z,73.88
2023-11-29T18:01:30.671Z,74.42
2023-11-29T18:03:57.985Z,75.52
2023-11-29T18:06:25.448Z,75.41
2023-11-29T18:08:52.447Z,76.13
2023-11-29T18:11:19.493Z,76.12
2023-11-29T18:13:49.408Z,76.43
2023-11-29T18:16:16.498Z,76.11
2023-11-29T18:18:43.683Z,76.80
2023-11-29T18:21:14.305Z,77.06
2023-11-29T18:23:41.629Z,77.34
2023-11-29T18:26:08.700Z,76.69
2023-11-29T18:31:44.995Z,76.88
2023-11-29T18:34:22.510Z,76.90
2023-11-29T18:37:01.165Z,76.38
2023-11-29T18:39:31.371Z,76.45
2023-11-29T18:42:13.991Z,76.46
2023-11-29T18:44:48.378Z,76.65
2023-11-29T18:47:15.630Z,76.48
2023-11-29T18:49:46.049Z,77.20
2023-11-29T18:52:13.223Z,77.15
2023-11-29T18:54:41.388Z,77.83
2023-11-29T18:57:08.655Z,77.63
2023-11-29T18:59:53.628Z,77.76
2023-11-29T19:02:23.468Z,77.43
2023-11-29T19:04:53.068Z,77.87
2023-11-29T19:07:38.377Z,77.69
2023-11-29T19:11:00.966Z,77.79
2023-11-29T19:13:40.553Z,77.48
2023-11-29T19:16:23.207Z,77.98
2023-11-29T19:18:57.733Z,77.59
2023-11-29T19:21:30.567Z,77.63
2023-11-29T19:24:00.513Z,77.60
2023-11-29T19:26:36.654Z,77.76
2023-11-29T19:29:10.200Z,77.94
2023-11-29T19:31:37.626Z,77.85
2023-11-29T19:34:07.249Z,78.02
2023-11-29T19:36:42.661Z,78.13
2023-11-29T19:39:19.872Z,78.15
2023-11-29T19:41:56.107Z,78.45
2023-11-29T19:44:35.830Z,78.33
2023-11-29T19:47:13.110Z,77.99
2023-11-29T19:49:46.383Z,78.03
2023-11-29T19:52:18.531Z,77.37
2023-11-29T19:54:51.556Z,77.14
2023-11-29T19:57:28.805Z,77.40
2023-11-29T19:59:59.062Z,78.26
2023-11-29T20:02:29.921Z,77.67
2023-11-29T20:05:01.885Z,77.77
2023-11-29T20:07:37.039Z,78.02
2023-11-29T20:10:10.113Z,78.15
2023-11-29T20:12:37.872Z,78.18
2023-11-29T20:15:10.867Z,78.60
2023-11-29T20:17:38.450Z,78.56
2023-11-29T20:20:15.261Z,78.44
2023-11-29T20:22:48.227Z,78.18
2023-11-29T20:25:17.694Z,78.14
2023-11-29T20:27:45.065Z,78.31
2023-11-29T20:30:13.060Z,77.77
2023-11-29T20:32:46.319Z,78.45
2023-11-29T20:35:25.768Z,78.01
2023-11-29T20:38:03.393Z,78.56
2023-11-29T20:40:36.827Z,78.82
2023-11-29T20:43:11.860Z,78.52
2023-11-29T20:45:39.092Z,78.99
2023-11-29T20:48:06.678Z,78.41
2023-11-29T20:50:33.743Z,78.09
2023-11-29T20:53:10.037Z,77.72
2023-11-29T20:55:47.852Z,78.32
2023-11-29T20:58:17.006Z,77.88
2023-11-29T21:00:47.183Z,78.10
2023-11-29T21:03:15.053Z,78.19
2023-11-29T21:05:42.685Z,77.77
2023-11-29T21:08:10.206Z,78.34
2023-11-29T21:10:37.290Z,77.75
2023-11-29T21:13:04.502Z,78.01
2023-11-29T21:15:31.737Z,77.80
2023-11-29T21:17:59.114Z,77.77
2023-11-29T21:20:26.223Z,77.63
2023-11-29T21:22:53.242Z,77.53
2023-11-29T21:25:22.384Z,77.70
2023-11-29T21:27:49.306Z,77.32
2023-11-29T21:30:16.813Z,76.66
2023-11-29T21:32:44.100Z,77.15
2023-11-29T21:35:11.183Z,76.84
2023-11-29T21:37:38.153Z,76.99
2023-11-29T21:40:06.089Z,76.59
2023-11-29T21:42:33.109Z,77.01
2023-11-29T21:45:00.365Z,77.13
2023-11-29T21:47:27.632Z,77.02
2023-11-29T21:49:56.041Z,76.80
2023-11-29T21:52:25.637Z,76.68
2023-11-29T21:54:58.107Z,77.11
2023-11-29T21:57:25.301Z,77.14
2023-11-29T21:59:55.352Z,76.74
2023-11-29T22:02:22.454Z,77.01
2023-11-29T22:04:50.752Z,76.79
2023-11-29T22:07:18.382Z,76.75
2023-11-29T22:09:45.466Z,76.67
2023-11-29T22:12:16.350Z,76.84
2023-11-29T22:14:47.421Z,76.54
2023-11-29T22:17:15.163Z,76.78
2023-11-29T22:19:42.450Z,76.85
2023-11-29T22:22:09.350Z,76.62
2023-11-29T22:24:36.500Z,76.06
2023-11-29T22:27:04.258Z,76.04
2023-11-29T22:29:31.374Z,75.56
2023-11-29T22:31:58.638Z,75.82
2023-11-29T22:34:25.610Z,75.89
2023-11-29T22:36:53.966Z,76.05
2023-11-29T22:39:21.098Z,75.71
2023-11-29T22:41:51.604Z,76.06
2023-11-29T22:44:18.958Z,75.80
2023-11-29T22:46:46.075Z,75.61
2023-11-29T22:49:13.296Z,75.80
2023-11-29T22:51:40.441Z,75.66
2023-11-29T22:54:07.596Z,76.14
2023-11-29T22:56:37.885Z,75.51
2023-11-29T22:59:06.750Z,75.92
2023-11-29T23:01:34.758Z,75.72
2023-11-29T23:04:03.674Z,75.44
2023-11-29T23:06:32.319Z,75.54
2023-11-29T23:08:59.673Z,76.15
2023-11-29T23:11:26.803Z,75.73
2023-11-29T23:13:53.810Z,75.66
2023-11-29T23:16:21.157Z,75.49
2023-11-29T23:18:49.015Z,75.59
2023-11-29T23:21:16.580Z,75.29
2023-11-29T23:23:45.084Z,75.86
2023-11-29T23:26:13.853Z,75.49
2023-11-29T23:28:40.842Z,75.89
2023-11-29T23:31:09.202Z,75.49
2023-11-29T23:33:36.370Z,75.44
2023-11-29T23:36:05.273Z,75.64
2023-11-29T23:38:34.341Z,75.18
2023-11-29T23:41:01.260Z,74.65
2023-11-29T23:43:28.222Z,74.92
2023-11-29T23:45:55.190Z,74.90
2023-11-29T23:48:22.293Z,74.80
2023-11-29T23:50:50.534Z,75.06
2023-11-29T23:53:20.008Z,75.62
2023-11-29T23:55:48.015Z,75.61
2023-11-29T23:58:15.122Z,75.23
